createdAt,value
2023-02-14T10:56:48.245Z,50325.18
2023-02-14T10:59:23.511Z,50323.58
2023-02-14T11:01:54.411Z,50331.18
2023-02-14T11:04:25.377Z,50327.98
2023-02-14T11:06:55.186Z,50339.98
2023-02-14T11:09:23.853Z,50339.57
2023-02-14T11:11:56.730Z,50323.59
2023-02-14T11:14:32.681Z,50324.38
2023-02-14T11:17:20.486Z,50328.78
2023-02-14T11:20:02.696Z,50341.18
2023-02-14T11:22:33.289Z,50316.38
2023-02-14T11:25:26.563Z,50325.98
2023-02-14T11:28:02.061Z,50339.18
2023-02-14T11:30:35.373Z,50323.18
2023-02-14T11:33:04.944Z,50327.98
2023-02-14T11:35:37.570Z,50323.18
2023-02-14T11:38:22.733Z,50321.98
2023-02-14T11:40:56.420Z,50323.18
2023-02-14T11:43:34.334Z,50325.58
2023-02-14T11:46:21.422Z,50326.78
2023-02-14T11:49:06.999Z,50336.38
2023-02-14T11:51:42.125Z,50326.38
2023-02-14T11:54:23.324Z,50324.38
2023-02-14T11:57:02.125Z,50341.98
2023-02-14T11:59:46.768Z,50339.98
2023-02-14T12:02:44.375Z,50328.78
2023-02-14T12:05:18.787Z,50335.18
2023-02-14T12:07:51.721Z,50325.98
2023-02-14T12:10:31.342Z,50321.59
2023-02-14T12:13:22.042Z,50318.38
2023-02-14T12:15:54.237Z,50335.98
2023-02-14T12:18:33.246Z,50326.78
2023-02-14T12:21:13.155Z,50325.18
2023-02-14T12:23:42.301Z,50320.38
2023-02-14T12:26:25.570Z,50325.18
2023-02-14T12:29:14.387Z,50314.79
2023-02-14T12:31:48.576Z,50325.18
2023-02-14T12:34:19.525Z,50315.18
2023-02-14T12:37:25.179Z,50325.98
2023-02-14T12:40:22.534Z,50323.58
2023-02-14T12:43:21.143Z,50333.98
2023-02-14T12:46:16.192Z,50329.18
2023-02-14T12:49:04.538Z,50330.38
2023-02-14T12:51:58.843Z,50316.38
2023-02-14T12:54:55.695Z,50328.78
2023-02-14T12:57:39.193Z,50311.99
2023-02-14T13:00:10.172Z,50321.98
2023-02-14T13:03:03.664Z,50325.58
2023-02-14T13:06:00.229Z,50333.58
2023-02-14T13:08:31.920Z,50333.58
2023-02-14T13:11:15.634Z,50338.38
2023-02-14T13:13:49.699Z,50322.38
2023-02-14T13:16:38.373Z,50305.19
2023-02-14T13:19:14.219Z,50330.38
2023-02-14T13:21:44.531Z,50319.18
2023-02-14T13:24:22.378Z,50330.38
2023-02-14T13:26:55.585Z,50327.58
2023-02-14T13:29:28.290Z,50333.18
2023-02-14T13:32:01.372Z,50315.59
2023-02-14T13:34:41.876Z,50328.38
2023-02-14T13:37:13.623Z,50328.38
2023-02-14T13:40:04.509Z,50325.18
2023-02-14T13:42:48.028Z,50330.38
2023-02-14T13:45:37.217Z,50335.98
2023-02-14T13:48:15.949Z,50333.18
2023-02-14T13:50:56.436Z,50331.58
2023-02-14T13:53:37.500Z,50342.77
2023-02-14T13:56:12.413Z,50337.18
2023-02-14T13:58:54.285Z,50347.57
2023-02-14T14:01:31.922Z,50326.78
2023-02-14T14:04:25.313Z,50334.78
2023-02-14T14:07:14.128Z,50356.77
2023-02-14T14:09:43.785Z,50318.39
2023-02-14T14:12:27.341Z,50343.17
2023-02-14T14:15:08.306Z,50336.38
2023-02-14T14:17:44.590Z,50331.58
2023-02-14T14:20:21.910Z,50332.78
2023-02-14T14:22:58.742Z,50324.38
2023-02-14T14:25:41.894Z,50359.57
2023-02-14T14:28:19.745Z,50340.77
2023-02-14T14:30:48.814Z,50333.98
2023-02-14T14:33:34.974Z,50345.57
2023-02-14T14:36:08.184Z,50351.57
2023-02-14T14:38:51.126Z,50339.98
2023-02-14T14:41:20.287Z,50339.58
2023-02-14T14:43:48.578Z,50341.98
2023-02-14T14:46:17.507Z,50356.37
2023-02-14T14:48:50.249Z,50336.77
2023-02-14T14:51:27.271Z,50347.58
2023-02-14T14:54:06.087Z,50327.18
2023-02-14T14:56:56.292Z,50331.18
2023-02-14T14:59:36.111Z,50342.78
2023-02-14T15:02:30.102Z,50343.57
2023-02-14T15:05:10.586Z,50349.98
2023-02-14T15:07:39.008Z,50333.58
2023-02-14T15:10:29.176Z,50346.77
2023-02-14T15:13:17.996Z,50355.17
2023-02-14T15:15:51.608Z,50349.57
2023-02-14T15:18:21.529Z,50354.37
2023-02-14T15:20:51.856Z,50354.37
2023-02-14T15:23:24.348Z,50337.18
2023-02-14T15:25:52.699Z,50344.77
2023-02-14T15:28:35.524Z,50334.38
2023-02-14T15:31:07.163Z,50337.98
2023-02-14T15:33:36.227Z,50351.17
2023-02-14T15:36:17.199Z,50345.18
2023-02-14T15:38:46.538Z,50337.18
2023-02-14T15:41:17.166Z,50348.77
2023-02-14T15:43:53.003Z,50334.78
2023-02-14T15:46:26.526Z,50346.38
2023-02-14T15:48:58.618Z,50338.38
2023-02-14T15:51:32.365Z,50349.18
2023-02-14T15:54:04.264Z,50344.38
2023-02-14T15:56:46.080Z,50342.38
2023-02-14T15:59:21.585Z,50345.18
2023-02-14T16:02:03.838Z,50341.57
2023-02-14T16:04:35.893Z,50341.98
2023-02-14T16:07:13.876Z,50332.78
2023-02-14T16:09:42.768Z,50344.77
2023-02-14T16:12:35.944Z,50351.18
2023-02-14T16:15:10.868Z,50350.77
2023-02-14T16:17:40.306Z,50332.78
2023-02-14T16:20:29.814Z,50341.58
2023-02-14T16:23:16.687Z,50337.58
2023-02-14T16:25:46.879Z,50332.78
2023-02-14T16:28:16.003Z,50322.78
2023-02-14T16:30:46.982Z,50343.98
2023-02-14T16:33:25.501Z,50319.98
2023-02-14T16:35:54.760Z,50335.18
2023-02-14T16:38:23.326Z,50348.38
2023-02-14T16:40:54.699Z,50323.58
2023-02-14T16:43:23.059Z,50337.98
2023-02-14T16:45:51.310Z,50345.57
2023-02-14T16:48:20.015Z,50339.57
2023-02-14T16:50:51.889Z,50337.57
2023-02-14T16:53:27.534Z,50337.58
2023-02-14T16:55:57.768Z,50337.98
2023-02-14T16:58:35.670Z,50349.98
2023-02-14T17:01:04.111Z,50329.98
2023-02-14T17:03:32.680Z,50342.77
2023-02-14T17:06:02.394Z,50347.98
2023-02-14T17:08:31.576Z,50346.38
2023-02-14T17:11:02.314Z,50338.77
2023-02-14T17:13:34.853Z,50351.57
2023-02-14T17:16:08.598Z,50339.18
2023-02-14T17:18:38.375Z,50339.98
2023-02-14T17:21:07.064Z,50349.18
2023-02-14T17:23:35.698Z,50350.38
2023-02-14T17:26:06.583Z,50320.79
2023-02-14T17:28:35.227Z,50347.57
2023-02-14T17:31:04.332Z,50365.57
2023-02-14T17:33:33.528Z,50346.38
2023-02-14T17:36:19.686Z,50336.38
2023-02-14T17:38:53.590Z,50343.98
2023-02-14T17:41:26.362Z,50333.98
2023-02-14T17:44:00.254Z,50356.77
2023-02-14T17:46:30.707Z,50360.77
2023-02-14T17:49:02.823Z,50353.98
2023-02-14T17:51:31.051Z,50361.18
2023-02-14T17:53:59.299Z,50353.98
2023-02-14T17:56:27.543Z,50345.18
2023-02-14T17:58:58.271Z,50354.77
2023-02-14T18:01:34.656Z,50351.98
2023-02-14T18:04:02.950Z,50344.77
2023-02-14T18:06:32.044Z,50353.57
2023-02-14T18:09:00.421Z,50337.18
2023-02-14T18:11:31.239Z,50356.77
2023-02-14T18:14:00.109Z,50359.17
2023-02-14T18:16:32.965Z,50366.37
2023-02-14T18:19:03.846Z,50334.38
2023-02-14T18:21:36.477Z,50359.17
2023-02-14T18:24:07.359Z,50353.98
2023-02-14T18:26:43.599Z,50342.77
2023-02-14T18:29:16.095Z,50360.77
2023-02-14T18:31:47.449Z,50359.18
2023-02-14T18:34:25.287Z,50353.18
2023-02-14T18:36:54.584Z,50358.37
2023-02-14T18:39:23.653Z,50359.97
2023-02-14T18:41:56.958Z,50341.18
2023-02-14T18:44:27.482Z,50342.38
2023-02-14T18:46:57.684Z,50367.57
2023-02-14T18:49:28.800Z,50360.77
2023-02-14T18:51:59.215Z,50352.38
2023-02-14T18:54:27.373Z,50353.98
2023-02-14T18:56:55.658Z,50362.77
2023-02-14T18:59:23.877Z,50357.97
2023-02-14T19:01:52.266Z,50368.77
2023-02-14T19:04:20.502Z,50364.77
2023-02-14T19:06:49.486Z,50377.97
2023-02-14T19:09:18.928Z,50341.98
2023-02-14T19:11:47.148Z,50364.77
2023-02-14T19:14:15.344Z,50362.38
2023-02-14T19:16:51.271Z,50360.37
2023-02-14T19:19:20.320Z,50366.77
2023-02-14T19:21:48.713Z,50367.97
2023-02-14T19:24:18.111Z,50356.77
2023-02-14T19:26:47.019Z,50367.17
2023-02-14T19:29:17.968Z,50352.77
2023-02-14T19:31:48.735Z,50356.37
2023-02-14T19:34:20.139Z,50365.57
2023-02-14T19:36:49.611Z,50355.98
2023-02-14T19:39:19.346Z,50345.18
2023-02-14T19:41:49.273Z,50349.98
2023-02-14T19:44:20.004Z,50353.57
2023-02-14T19:46:48.688Z,50365.97
2023-02-14T19:49:20.454Z,50343.98
2023-02-14T19:51:51.459Z,50361.17
2023-02-14T19:54:22.506Z,50334.78
2023-02-14T19:56:50.780Z,50349.57
2023-02-14T19:59:23.381Z,50339.18
2023-02-14T20:01:53.974Z,50344.77
2023-02-14T20:04:28.053Z,50357.97
2023-02-14T20:06:57.184Z,50340.38
2023-02-14T20:09:26.543Z,50345.98
2023-02-14T20:11:57.003Z,50352.38
2023-02-14T20:14:50.490Z,50343.98
2023-02-14T20:17:20.776Z,50376.37
2023-02-14T20:19:49.409Z,50332.77
2023-02-14T20:22:17.667Z,50353.57
2023-02-14T20:24:46.151Z,50346.37
2023-02-14T20:27:14.485Z,50352.38
2023-02-14T20:29:45.939Z,50347.98
2023-02-14T20:32:16.561Z,50347.98
2023-02-14T20:34:45.307Z,50342.38
2023-02-14T20:37:13.984Z,50340.77
2023-02-14T20:39:42.184Z,50351.18
2023-02-14T20:42:10.617Z,50368.37
2023-02-14T20:44:38.856Z,50356.37
2023-02-14T20:47:07.612Z,50361.57
2023-02-14T20:49:37.786Z,50348.77
2023-02-14T20:52:06.364Z,50355.98
2023-02-14T20:54:34.700Z,50361.17
2023-02-14T20:57:04.435Z,50371.97
2023-02-14T20:59:33.888Z,50358.77
2023-02-14T21:02:02.107Z,50355.97
2023-02-14T21:04:30.633Z,50349.18
2023-02-14T21:07:00.397Z,50364.77
2023-02-14T21:09:28.661Z,50357.97
2023-02-14T21:11:58.462Z,50363.57
2023-02-14T21:14:27.129Z,50362.77
2023-02-14T21:16:55.386Z,50338.78
2023-02-14T21:19:23.592Z,50359.98
2023-02-14T21:21:51.752Z,50375.56
2023-02-14T21:24:20.080Z,50355.98
2023-02-14T21:26:48.284Z,50358.77
2023-02-14T21:29:16.713Z,50376.37
2023-02-14T21:31:45.034Z,50359.57
2023-02-14T21:34:15.383Z,50371.17
2023-02-14T21:36:43.867Z,50358.77
2023-02-14T21:39:12.128Z,50364.77
2023-02-14T21:41:40.398Z,50387.57
2023-02-14T21:44:08.639Z,50383.16
2023-02-14T21:46:43.475Z,50379.96
2023-02-14T21:49:31.634Z,50388.76
2023-02-14T21:52:02.118Z,50368.37
2023-02-14T21:54:30.446Z,50376.76
2023-02-14T21:56:58.696Z,50371.97
2023-02-14T21:59:28.088Z,50383.56
2023-02-14T22:01:56.543Z,50369.17
2023-02-14T22:04:25.294Z,50377.57
2023-02-14T22:06:53.585Z,50387.57
2023-02-14T22:09:22.093Z,50373.57
2023-02-14T22:11:50.296Z,50383.16
2023-02-14T22:14:19.826Z,50381.17
2023-02-14T22:16:48.495Z,50381.16
2023-02-14T22:19:17.143Z,50387.16
2023-02-14T22:21:45.431Z,50399.96
2023-02-14T22:24:15.142Z,50378.37
2023-02-14T22:26:43.480Z,50379.16
2023-02-14T22:29:14.252Z,50380.36
2023-02-14T22:31:43.864Z,50393.16
2023-02-14T22:34:14.747Z,50385.96
2023-02-14T22:36:43.021Z,50382.76
2023-02-14T22:39:16.562Z,50373.56
2023-02-14T22:41:47.912Z,50376.77
2023-02-14T22:44:16.160Z,50384.76
2023-02-14T22:46:44.608Z,50397.56
2023-02-14T22:49:13.122Z,50387.96
2023-02-14T22:51:42.632Z,50397.56
2023-02-14T22:54:13.763Z,50393.96
2023-02-14T22:56:47.077Z,50405.16
2023-02-14T22:59:24.492Z,50403.96
2023-02-14T23:01:53.910Z,50393.96
2023-02-14T23:04:27.324Z,50405.55
2023-02-14T23:06:56.327Z,50400.76
2023-02-14T23:09:25.153Z,50400.36
2023-02-14T23:11:53.471Z,50402.76
2023-02-14T23:14:40.518Z,50397.16
2023-02-14T23:17:15.071Z,50405.56
2023-02-14T23:20:02.752Z,50423.55
2023-02-14T23:22:34.020Z,50416.35
2023-02-14T23:25:05.175Z,50390.36
2023-02-14T23:27:45.969Z,50399.16
2023-02-14T23:30:17.398Z,50407.96
2023-02-14T23:32:45.788Z,50401.96
2023-02-14T23:35:14.404Z,50388.76
2023-02-14T23:37:42.616Z,50420.75
2023-02-14T23:40:13.709Z,50395.16
2023-02-14T23:42:41.901Z,50395.16
2023-02-14T23:45:28.704Z,50413.55
2023-02-14T23:48:01.933Z,50415.55
2023-02-14T23:50:30.376Z,50391.56
2023-02-14T23:52:59.442Z,50394.36
2023-02-14T23:55:27.672Z,50395.96
2023-02-14T23:57:55.949Z,50391.96
